createdAt,value
2022-09-10T00:04:08.413Z,73.68
2022-09-10T00:09:12.561Z,73.50
2022-09-10T00:14:19.396Z,73.84
2022-09-10T00:19:22.874Z,73.61
2022-09-10T00:24:26.023Z,75.07
2022-09-10T00:29:30.170Z,73.76
2022-09-10T00:34:32.929Z,73.08
2022-09-10T00:39:35.857Z,72.85
2022-09-10T00:45:00.141Z,73.03
2022-09-10T00:50:08.278Z,72.58
2022-09-10T00:55:13.062Z,72.34
2022-09-10T01:00:18.399Z,72.62
2022-09-10T01:05:22.333Z,72.31
2022-09-10T01:10:29.098Z,72.60
2022-09-10T01:15:40.929Z,72.86
2022-09-10T01:21:05.146Z,72.75
2022-09-10T01:26:25.840Z,73.01
2022-09-10T01:31:37.347Z,73.42
2022-09-10T01:36:48.086Z,73.61
2022-09-10T01:41:54.412Z,73.48
2022-09-10T01:47:12.500Z,74.03
2022-09-10T01:52:28.576Z,74.01
2022-09-10T01:57:41.320Z,74.39
2022-09-10T02:02:51.001Z,74.63
2022-09-10T02:07:59.597Z,73.78
2022-09-10T02:13:02.889Z,74.34
2022-09-10T02:18:20.657Z,73.80
2022-09-10T02:23:31.618Z,74.38
2022-09-10T02:28:34.608Z,74.18
2022-09-10T02:33:39.447Z,74.39
2022-09-10T02:38:42.344Z,74.55
2022-09-10T02:43:46.221Z,74.24
2022-09-10T02:48:50.429Z,74.11
2022-09-10T02:53:53.580Z,74.48
2022-09-10T02:58:56.626Z,73.76
2022-09-10T03:04:04.004Z,73.78
2022-09-10T03:09:08.240Z,74.43
2022-09-10T03:14:12.165Z,73.77
2022-09-10T03:19:17.438Z,73.57
2022-09-10T03:24:20.362Z,73.82
2022-09-10T03:29:24.364Z,74.27
2022-09-10T03:34:29.429Z,73.60
2022-09-10T03:39:32.411Z,73.91
2022-09-10T03:44:35.358Z,74.36
2022-09-10T03:49:39.977Z,74.74
2022-09-10T03:54:45.550Z,74.69
2022-09-10T03:59:49.840Z,74.44
2022-09-10T04:04:54.200Z,74.43
2022-09-10T04:09:57.306Z,74.12
2022-09-10T04:15:01.562Z,74.64
2022-09-10T04:20:06.791Z,74.36
2022-09-10T04:25:10.733Z,74.60
2022-09-10T04:30:15.389Z,74.34
2022-09-10T04:35:20.368Z,75.01
2022-09-10T04:40:23.859Z,74.47
2022-09-10T04:45:26.829Z,74.55
2022-09-10T04:50:31.855Z,74.42
2022-09-10T04:55:51.409Z,74.23
2022-09-10T05:00:56.978Z,73.82
2022-09-10T05:06:01.895Z,73.40
2022-09-10T05:11:05.299Z,73.15
2022-09-10T05:16:09.120Z,72.99
2022-09-10T05:21:13.495Z,72.50
2022-09-10T05:26:17.861Z,72.12
2022-09-10T05:31:20.924Z,71.62
2022-09-10T05:36:25.548Z,71.37
2022-09-10T05:41:28.815Z,70.87
2022-09-10T05:46:33.466Z,70.77
2022-09-10T05:51:45.769Z,70.62
2022-09-10T05:56:48.686Z,70.17
2022-09-10T06:01:52.374Z,69.50
2022-09-10T06:06:58.495Z,69.36
2022-09-10T06:12:01.872Z,68.67
2022-09-10T06:17:06.241Z,67.11
2022-09-10T06:22:11.373Z,66.62
2022-09-10T06:27:17.146Z,65.39
2022-09-10T06:32:21.383Z,65.72
2022-09-10T06:37:26.993Z,65.74
2022-09-10T06:42:32.120Z,64.87
2022-09-10T06:53:30.122Z,64.38
2022-09-10T06:58:35.086Z,63.39
2022-09-10T07:03:38.875Z,64.25
2022-09-10T07:08:43.410Z,64.80
2022-09-10T07:13:51.889Z,63.37
2022-09-10T07:18:59.577Z,62.24
2022-09-10T07:24:21.507Z,60.72
2022-09-10T07:29:44.714Z,62.04
2022-09-10T07:34:52.278Z,62.94
2022-09-10T07:39:58.571Z,62.11
2022-09-10T07:45:01.904Z,62.14
2022-09-10T07:50:05.324Z,65.40
2022-09-10T07:55:10.711Z,66.66
2022-09-10T08:00:16.919Z,66.55
2022-09-10T08:05:26.990Z,67.75
2022-09-10T08:10:31.316Z,67.73
2022-09-10T08:15:36.205Z,68.17
2022-09-10T08:20:40.208Z,66.28
2022-09-10T08:25:52.493Z,66.56
2022-09-10T08:31:01.109Z,65.00
2022-09-10T08:36:06.809Z,66.25
2022-09-10T08:41:26.170Z,66.17
2022-09-10T08:46:33.428Z,66.63
2022-09-10T08:51:43.611Z,65.83
2022-09-10T08:56:50.859Z,63.66
2022-09-10T09:01:59.315Z,62.12
2022-09-10T09:07:11.374Z,60.57
2022-09-10T09:12:26.975Z,62.94
2022-09-10T09:17:44.164Z,60.01
2022-09-10T09:22:55.154Z,62.03
2022-09-10T09:28:18.469Z,62.46
2022-09-10T09:33:25.022Z,63.81
2022-09-10T09:38:34.029Z,64.01
2022-09-10T09:43:52.352Z,65.07
2022-09-10T09:49:00.158Z,66.14
2022-09-10T09:54:42.485Z,65.53
2022-09-10T09:59:34.816Z,62.80
2022-09-10T10:04:42.017Z,61.98
2022-09-10T10:09:49.785Z,59.54
2022-09-10T10:14:54.114Z,58.75
2022-09-10T10:20:10.601Z,59.17
2022-09-10T10:25:38.375Z,57.80
2022-09-10T10:30:43.032Z,56.48
2022-09-10T10:35:51.580Z,54.98
2022-09-10T10:41:08.223Z,57.97
2022-09-10T10:46:18.844Z,56.80
2022-09-10T10:51:33.361Z,55.98
2022-09-10T10:56:41.751Z,55.96
2022-09-10T11:01:51.902Z,53.77
2022-09-10T11:07:00.141Z,50.40
2022-09-10T11:12:06.939Z,49.16
2022-09-10T11:17:16.809Z,49.11
2022-09-10T11:22:23.907Z,50.75
2022-09-10T11:27:31.024Z,51.39
2022-09-10T11:32:39.897Z,50.53
2022-09-10T11:37:54.904Z,50.48
2022-09-10T11:43:02.236Z,46.85
2022-09-10T11:48:17.500Z,48.14
2022-09-10T11:53:23.393Z,50.57
2022-09-10T11:58:36.778Z,52.22
2022-09-10T12:04:12.454Z,51.67
2022-09-10T12:09:21.649Z,51.06
2022-09-10T12:14:24.683Z,51.39
2022-09-10T12:19:32.124Z,52.18
2022-09-10T12:24:37.237Z,53.33
2022-09-10T12:29:41.455Z,61.91
2022-09-10T12:34:48.403Z,72.78
2022-09-10T12:40:32.060Z,81.73
2022-09-10T12:46:02.545Z,85.03
2022-09-10T12:51:20.172Z,87.01
2022-09-10T12:56:58.215Z,85.74
2022-09-10T13:02:01.691Z,85.43
2022-09-10T13:07:19.803Z,82.69
2022-09-10T13:12:25.987Z,81.33
2022-09-10T13:18:01.890Z,79.43
2022-09-10T13:23:21.653Z,78.80
2022-09-10T13:29:05.046Z,78.52
2022-09-10T13:34:41.303Z,77.11
2022-09-10T13:40:03.753Z,76.23
2022-09-10T13:45:21.742Z,76.45
2022-09-10T13:50:28.152Z,73.11
2022-09-10T13:55:34.147Z,75.38
2022-09-10T14:00:42.489Z,72.36
2022-09-10T14:05:49.464Z,70.81
2022-09-10T14:10:58.101Z,67.22
2022-09-10T14:16:03.559Z,71.89
2022-09-10T14:21:07.612Z,69.69
2022-09-10T14:26:23.229Z,68.68
2022-09-10T14:31:33.419Z,67.57
2022-09-10T14:36:36.607Z,69.45
2022-09-10T14:41:41.250Z,66.59
2022-09-10T14:46:50.286Z,66.54
2022-09-10T14:51:53.659Z,66.92
2022-09-10T14:56:59.581Z,65.12
2022-09-10T15:02:07.866Z,66.39
2022-09-10T15:07:11.657Z,66.19
2022-09-10T15:12:20.350Z,66.50
2022-09-10T15:17:23.526Z,65.05
2022-09-10T15:22:28.579Z,65.65
2022-09-10T15:27:34.148Z,64.75
2022-09-10T15:32:37.270Z,64.29
2022-09-10T15:37:40.622Z,65.49
2022-09-10T15:42:45.055Z,64.07
2022-09-10T15:47:48.025Z,61.35
2022-09-10T15:52:50.929Z,61.85
2022-09-10T15:57:55.157Z,61.66
2022-09-10T16:02:58.005Z,62.55
2022-09-10T16:08:01.009Z,63.14
2022-09-10T16:13:05.220Z,63.42
2022-09-10T16:18:08.174Z,63.85
2022-09-10T16:23:11.103Z,63.12
2022-09-10T16:28:15.337Z,64.29
2022-09-10T16:33:18.175Z,63.04
2022-09-10T16:38:22.015Z,64.08
2022-09-10T16:43:26.283Z,63.87
2022-09-10T16:48:29.113Z,63.90
2022-09-10T16:53:31.961Z,65.62
2022-09-10T16:58:37.494Z,66.63
2022-09-10T17:03:41.704Z,67.52
2022-09-10T17:08:45.100Z,68.88
2022-09-10T17:13:51.053Z,67.48
2022-09-10T17:18:58.564Z,68.26
2022-09-10T17:24:03.023Z,69.57
2022-09-10T17:29:09.417Z,70.52
2022-09-10T17:34:13.535Z,70.87
2022-09-10T17:39:16.687Z,70.99
2022-09-10T17:44:21.060Z,71.37
2022-09-10T17:49:24.408Z,71.35
2022-09-10T17:54:27.323Z,71.50
2022-09-10T17:59:32.223Z,72.29
2022-09-10T18:04:35.116Z,72.93
2022-09-10T18:09:38.064Z,73.65
2022-09-10T18:14:42.866Z,74.11
2022-09-10T18:19:45.700Z,74.38
2022-09-10T18:24:48.522Z,74.52
2022-09-10T18:29:52.809Z,74.56
2022-09-10T18:34:57.379Z,74.42
2022-09-10T18:40:00.423Z,74.68
2022-09-10T18:45:05.549Z,74.48
2022-09-10T18:50:10.160Z,74.86
2022-09-10T18:55:13.123Z,74.98
2022-09-10T19:00:17.725Z,74.96
2022-09-10T19:05:20.567Z,75.29
2022-09-10T19:10:23.313Z,75.34
2022-09-10T19:15:27.886Z,76.01
2022-09-10T19:20:30.891Z,76.41
2022-09-10T19:25:33.730Z,76.51
2022-09-10T19:30:40.069Z,76.46
2022-09-10T19:35:44.215Z,76.63
2022-09-10T19:40:47.138Z,76.51
2022-09-10T19:45:55.632Z,76.54
2022-09-10T19:51:00.181Z,76.84
2022-09-10T19:56:07.149Z,76.91
2022-09-10T20:01:13.166Z,76.83
2022-09-10T20:06:18.456Z,76.88
2022-09-10T20:11:24.178Z,76.90
2022-09-10T20:16:29.904Z,76.62
2022-09-10T20:21:33.290Z,76.97
2022-09-10T20:26:39.076Z,76.80
2022-09-10T20:31:44.078Z,77.25
2022-09-10T20:36:47.781Z,77.21
2022-09-10T20:41:50.582Z,76.95
2022-09-10T20:46:55.007Z,77.32
2022-09-10T20:51:59.544Z,77.19
2022-09-10T20:57:02.455Z,77.09
2022-09-10T21:02:08.381Z,77.38
2022-09-10T21:07:11.401Z,77.45
2022-09-10T21:12:14.293Z,78.16
2022-09-10T21:17:18.640Z,78.16
2022-09-10T21:22:21.501Z,78.41
2022-09-10T21:27:24.918Z,78.19
2022-09-10T21:32:29.124Z,77.79
2022-09-10T21:37:32.033Z,77.31
2022-09-10T21:42:35.188Z,77.15
2022-09-10T21:47:39.363Z,76.88
2022-09-10T21:52:42.245Z,77.67
2022-09-10T21:57:45.159Z,79.72
2022-09-10T22:02:51.077Z,80.65
2022-09-10T22:07:54.554Z,79.92
2022-09-10T22:12:57.456Z,79.10
2022-09-10T22:18:01.653Z,79.20
2022-09-10T22:23:05.345Z,78.70
2022-09-10T22:28:08.141Z,77.56
2022-09-10T22:33:12.290Z,76.97
2022-09-10T22:38:19.482Z,77.36
2022-09-10T22:43:22.420Z,77.24
2022-09-10T22:48:27.616Z,77.57
2022-09-10T22:53:30.408Z,77.79
2022-09-10T22:58:33.889Z,77.10
2022-09-10T23:03:38.304Z,77.29
2022-09-10T23:08:41.946Z,77.04
2022-09-10T23:13:46.290Z,76.88
2022-09-10T23:18:52.158Z,76.87
2022-09-10T23:23:57.617Z,76.10
2022-09-10T23:29:03.764Z,77.34
2022-09-10T23:34:11.034Z,77.78
2022-09-10T23:39:16.119Z,77.87
2022-09-10T23:44:20.179Z,77.79
2022-09-10T23:49:24.958Z,77.78
2022-09-10T23:54:29.203Z,77.47
2022-09-10T23:59:32.010Z,78.50
